sensor_id;sensor_type;location;lat;lon;timestamp;temperature;humidity
52565;DHT22;38460;53.106;7.004;2022-10-31T00:02:06;13.40;99.90
52565;DHT22;38460;53.106;7.004;2022-10-31T00:04:32;13.40;99.90
52565;DHT22;38460;53.106;7.004;2022-10-31T00:06:58;13.30;99.90
52565;DHT22;38460;53.106;7.004;2022-10-31T00:09:23;13.30;99.90
52565;DHT22;38460;53.106;7.004;2022-10-31T00:11:49;13.20;99.90
52565;DHT22;38460;53.106;7.004;2022-10-31T00:14:15;13.20;99.90
52565;DHT22;38460;53.106;7.004;2022-10-31T00:16:40;13.20;99.90
52565;DHT22;38460;53.106;7.004;2022-10-31T00:19:07;13.10;99.90
52565;DHT22;38460;53.106;7.004;2022-10-31T00:21:34;13.10;99.90
52565;DHT22;38460;53.106;7.004;2022-10-31T00:24:01;13.00;99.90
52565;DHT22;38460;53.106;7.004;2022-10-31T00:26:31;13.00;99.90
52565;DHT22;38460;53.106;7.004;2022-10-31T00:28:58;12.90;99.90
52565;DHT22;38460;53.106;7.004;2022-10-31T00:31:24;12.90;99.90
52565;DHT22;38460;53.106;7.004;2022-10-31T00:33:49;12.90;99.90
52565;DHT22;38460;53.106;7.004;2022-10-31T00:36:17;12.80;99.90
52565;DHT22;38460;53.106;7.004;2022-10-31T00:38:44;12.80;99.90
52565;DHT22;38460;53.106;7.004;2022-10-31T00:41:11;12.80;99.90
52565;DHT22;38460;53.106;7.004;2022-10-31T00:43:36;12.70;99.90
52565;DHT22;38460;53.106;7.004;2022-10-31T00:46:02;12.70;99.90
52565;DHT22;38460;53.106;7.004;2022-10-31T00:48:28;12.70;99.90
52565;DHT22;38460;53.106;7.004;2022-10-31T00:50:54;12.70;99.90
52565;DHT22;38460;53.106;7.004;2022-10-31T00:53:20;12.60;99.90
52565;DHT22;38460;53.106;7.004;2022-10-31T00:55:45;12.60;99.90
52565;DHT22;38460;53.106;7.004;2022-10-31T00:58:11;12.60;99.90
52565;DHT22;38460;53.106;7.004;2022-10-31T01:00:37;12.60;99.90
52565;DHT22;38460;53.106;7.004;2022-10-31T01:03:02;12.50;99.90
52565;DHT22;38460;53.106;7.004;2022-10-31T01:05:28;12.50;99.90
52565;DHT22;38460;53.106;7.004;2022-10-31T01:07:54;12.50;99.90
52565;DHT22;38460;53.106;7.004;2022-10-31T01:10:20;12.50;99.90
52565;DHT22;38460;53.106;7.004;2022-10-31T01:12:47;12.50;99.90
52565;DHT22;38460;53.106;7.004;2022-10-31T01:15:17;12.50;99.90
52565;DHT22;38460;53.106;7.004;2022-10-31T01:17:43;12.50;99.90
52565;DHT22;38460;53.106;7.004;2022-10-31T01:20:09;12.50;99.90
52565;DHT22;38460;53.106;7.004;2022-10-31T01:22:35;12.40;99.90
52565;DHT22;38460;53.106;7.004;2022-10-31T01:25:02;12.40;99.90
52565;DHT22;38460;53.106;7.004;2022-10-31T01:27:28;12.40;99.90
52565;DHT22;38460;53.106;7.004;2022-10-31T01:29:53;12.40;99.90
52565;DHT22;38460;53.106;7.004;2022-10-31T01:32:19;12.40;99.90
52565;DHT22;38460;53.106;7.004;2022-10-31T01:34:45;12.40;99.90
52565;DHT22;38460;53.106;7.004;2022-10-31T01:37:10;12.40;99.90
52565;DHT22;38460;53.106;7.004;2022-10-31T01:39:36;12.30;99.90
52565;DHT22;38460;53.106;7.004;2022-10-31T01:42:02;12.30;99.90
52565;DHT22;38460;53.106;7.004;2022-10-31T01:47:05;12.30;99.90
52565;DHT22;38460;53.106;7.004;2022-10-31T01:49:34;12.30;99.90
52565;DHT22;38460;53.106;7.004;2022-10-31T01:52:07;12.30;99.90
52565;DHT22;38460;53.106;7.004;2022-10-31T01:54:39;12.30;99.90
52565;DHT22;38460;53.106;7.004;2022-10-31T01:57:08;12.20;99.90
52565;DHT22;38460;53.106;7.004;2022-10-31T01:59:37;12.20;99.90
52565;DHT22;38460;53.106;7.004;2022-10-31T02:02:06;12.20;99.90
52565;DHT22;38460;53.106;7.004;2022-10-31T02:04:32;12.20;99.90
52565;DHT22;38460;53.106;7.004;2022-10-31T02:07:10;12.20;99.90
52565;DHT22;38460;53.106;7.004;2022-10-31T02:09:37;12.20;99.90
52565;DHT22;38460;53.106;7.004;2022-10-31T02:12:05;12.20;99.90
52565;DHT22;38460;53.106;7.004;2022-10-31T02:14:32;12.10;99.90
52565;DHT22;38460;53.106;7.004;2022-10-31T02:16:58;12.20;99.90
52565;DHT22;38460;53.106;7.004;2022-10-31T02:22:23;12.20;99.90
52565;DHT22;38460;53.106;7.004;2022-10-31T02:30:21;12.10;99.90
52565;DHT22;38460;53.106;7.004;2022-10-31T02:35:46;12.10;99.90
52565;DHT22;38460;53.106;7.004;2022-10-31T02:47:22;12.00;99.90
52565;DHT22;38460;53.106;7.004;2022-10-31T02:49:34;12.00;99.90
52565;DHT22;38460;53.106;7.004;2022-10-31T02:52:01;11.90;99.90
52565;DHT22;38460;53.106;7.004;2022-10-31T02:54:28;11.90;99.90
52565;DHT22;38460;53.106;7.004;2022-10-31T02:57:06;11.90;99.90
52565;DHT22;38460;53.106;7.004;2022-10-31T02:59:35;11.90;99.90
52565;DHT22;38460;53.106;7.004;2022-10-31T03:07:50;11.80;99.90
52565;DHT22;38460;53.106;7.004;2022-10-31T03:10:45;11.80;99.90
52565;DHT22;38460;53.106;7.004;2022-10-31T03:13:17;11.70;99.90
52565;DHT22;38460;53.106;7.004;2022-10-31T03:15:45;11.70;99.90
52565;DHT22;38460;53.106;7.004;2022-10-31T03:21:04;11.60;99.90
52565;DHT22;38460;53.106;7.004;2022-10-31T03:23:32;11.60;99.90
52565;DHT22;38460;53.106;7.004;2022-10-31T03:26:03;11.60;99.90
52565;DHT22;38460;53.106;7.004;2022-10-31T03:28:34;11.60;99.90
52565;DHT22;38460;53.106;7.004;2022-10-31T03:31:04;11.60;99.90
52565;DHT22;38460;53.106;7.004;2022-10-31T03:33:34;11.50;99.90
52565;DHT22;38460;53.106;7.004;2022-10-31T03:36:02;11.50;99.90
52565;DHT22;38460;53.106;7.004;2022-10-31T03:38:30;11.50;99.90
52565;DHT22;38460;53.106;7.004;2022-10-31T03:40:58;11.50;99.90
52565;DHT22;38460;53.106;7.004;2022-10-31T03:43:32;11.40;99.90
52565;DHT22;38460;53.106;7.004;2022-10-31T03:45:59;11.40;99.90
52565;DHT22;38460;53.106;7.004;2022-10-31T03:48:25;11.40;99.90
52565;DHT22;38460;53.106;7.004;2022-10-31T03:53:41;11.30;99.90
52565;DHT22;38460;53.106;7.004;2022-10-31T03:56:20;11.30;99.90
52565;DHT22;38460;53.106;7.004;2022-10-31T03:59:00;11.30;99.90
52565;DHT22;38460;53.106;7.004;2022-10-31T04:01:30;11.20;99.90
52565;DHT22;38460;53.106;7.004;2022-10-31T04:03:57;11.30;99.90
52565;DHT22;38460;53.106;7.004;2022-10-31T04:06:24;11.20;99.90
52565;DHT22;38460;53.106;7.004;2022-10-31T04:09:03;11.20;99.90
52565;DHT22;38460;53.106;7.004;2022-10-31T04:11:34;11.10;99.90
52565;DHT22;38460;53.106;7.004;2022-10-31T04:14:02;11.10;99.90
52565;DHT22;38460;53.106;7.004;2022-10-31T04:16:29;11.10;99.90
52565;DHT22;38460;53.106;7.004;2022-10-31T04:18:55;11.10;99.90
52565;DHT22;38460;53.106;7.004;2022-10-31T04:21:27;11.00;99.90
52565;DHT22;38460;53.106;7.004;2022-10-31T04:23:54;11.00;99.90
52565;DHT22;38460;53.106;7.004;2022-10-31T04:26:20;11.00;99.90
52565;DHT22;38460;53.106;7.004;2022-10-31T04:28:45;10.90;99.90
52565;DHT22;38460;53.106;7.004;2022-10-31T04:31:12;10.90;99.90
52565;DHT22;38460;53.106;7.004;2022-10-31T04:33:38;10.90;99.90
52565;DHT22;38460;53.106;7.004;2022-10-31T04:36:04;10.90;99.90
52565;DHT22;38460;53.106;7.004;2022-10-31T04:38:32;10.80;99.90
52565;DHT22;38460;53.106;7.004;2022-10-31T04:40:58;10.80;99.90
52565;DHT22;38460;53.106;7.004;2022-10-31T04:43:24;10.80;99.90
52565;DHT22;38460;53.106;7.004;2022-10-31T04:45:50;10.80;99.90
52565;DHT22;38460;53.106;7.004;2022-10-31T04:48:16;10.70;99.90
52565;DHT22;38460;53.106;7.004;2022-10-31T04:50:41;10.70;99.90
52565;DHT22;38460;53.106;7.004;2022-10-31T04:53:07;10.70;99.90
52565;DHT22;38460;53.106;7.004;2022-10-31T04:55:34;10.70;99.90
52565;DHT22;38460;53.106;7.004;2022-10-31T04:58:00;10.60;99.90
52565;DHT22;38460;53.106;7.004;2022-10-31T05:00:26;10.60;99.90
52565;DHT22;38460;53.106;7.004;2022-10-31T05:02:53;10.60;99.90
52565;DHT22;38460;53.106;7.004;2022-10-31T05:05:23;10.60;99.90
52565;DHT22;38460;53.106;7.004;2022-10-31T05:07:50;10.60;99.90
52565;DHT22;38460;53.106;7.004;2022-10-31T05:10:18;10.50;99.90
52565;DHT22;38460;53.106;7.004;2022-10-31T05:12:46;10.50;99.90
52565;DHT22;38460;53.106;7.004;2022-10-31T05:15:13;10.50;99.90
52565;DHT22;38460;53.106;7.004;2022-10-31T05:17:39;10.50;99.90
52565;DHT22;38460;53.106;7.004;2022-10-31T05:20:05;10.50;99.90
52565;DHT22;38460;53.106;7.004;2022-10-31T05:22:31;10.50;99.90
52565;DHT22;38460;53.106;7.004;2022-10-31T05:24:56;10.40;99.90
52565;DHT22;38460;53.106;7.004;2022-10-31T05:27:22;10.50;99.90
52565;DHT22;38460;53.106;7.004;2022-10-31T05:29:48;10.40;99.90
52565;DHT22;38460;53.106;7.004;2022-10-31T05:32:14;10.40;99.90
52565;DHT22;38460;53.106;7.004;2022-10-31T05:34:39;10.40;99.90
52565;DHT22;38460;53.106;7.004;2022-10-31T05:37:05;10.30;99.90
52565;DHT22;38460;53.106;7.004;2022-10-31T05:39:30;10.30;99.90
52565;DHT22;38460;53.106;7.004;2022-10-31T05:41:56;10.20;99.90
52565;DHT22;38460;53.106;7.004;2022-10-31T05:44:22;10.20;99.90
52565;DHT22;38460;53.106;7.004;2022-10-31T05:46:48;10.20;99.90
52565;DHT22;38460;53.106;7.004;2022-10-31T05:49:13;10.20;99.90
52565;DHT22;38460;53.106;7.004;2022-10-31T05:51:39;10.10;99.90
52565;DHT22;38460;53.106;7.004;2022-10-31T05:54:05;10.20;99.90
52565;DHT22;38460;53.106;7.004;2022-10-31T05:56:31;10.10;99.90
52565;DHT22;38460;53.106;7.004;2022-10-31T05:58:56;10.10;99.90
52565;DHT22;38460;53.106;7.004;2022-10-31T06:01:22;10.10;99.90
52565;DHT22;38460;53.106;7.004;2022-10-31T06:03:48;10.10;99.90
52565;DHT22;38460;53.106;7.004;2022-10-31T06:06:13;10.10;99.90
52565;DHT22;38460;53.106;7.004;2022-10-31T06:08:40;10.10;99.90
52565;DHT22;38460;53.106;7.004;2022-10-31T06:11:05;10.00;99.90
52565;DHT22;38460;53.106;7.004;2022-10-31T06:13:31;10.00;99.90
52565;DHT22;38460;53.106;7.004;2022-10-31T06:15:57;10.00;99.90
52565;DHT22;38460;53.106;7.004;2022-10-31T06:18:22;10.00;99.90
52565;DHT22;38460;53.106;7.004;2022-10-31T06:20:48;9.90;99.90
52565;DHT22;38460;53.106;7.004;2022-10-31T06:23:14;9.90;99.90
52565;DHT22;38460;53.106;7.004;2022-10-31T06:25:39;9.90;99.90
52565;DHT22;38460;53.106;7.004;2022-10-31T06:28:05;9.90;99.90
52565;DHT22;38460;53.106;7.004;2022-10-31T06:30:31;9.90;99.90
52565;DHT22;38460;53.106;7.004;2022-10-31T06:33:04;9.90;99.90
52565;DHT22;38460;53.106;7.004;2022-10-31T06:35:30;9.90;99.90
52565;DHT22;38460;53.106;7.004;2022-10-31T06:37:56;9.90;99.90
52565;DHT22;38460;53.106;7.004;2022-10-31T06:40:22;9.90;99.90
52565;DHT22;38460;53.106;7.004;2022-10-31T06:42:59;9.90;99.90
52565;DHT22;38460;53.106;7.004;2022-10-31T06:45:25;9.80;99.90
52565;DHT22;38460;53.106;7.004;2022-10-31T06:47:52;9.80;99.90
52565;DHT22;38460;53.106;7.004;2022-10-31T06:50:19;9.80;99.90
52565;DHT22;38460;53.106;7.004;2022-10-31T06:52:53;9.80;99.90
52565;DHT22;38460;53.106;7.004;2022-10-31T06:55:20;9.80;99.90
52565;DHT22;38460;53.106;7.004;2022-10-31T06:57:59;9.80;99.90
52565;DHT22;38460;53.106;7.004;2022-10-31T07:00:26;9.80;99.90
52565;DHT22;38460;53.106;7.004;2022-10-31T07:05:20;9.90;99.90
52565;DHT22;38460;53.106;7.004;2022-10-31T07:07:46;9.80;99.90
52565;DHT22;38460;53.106;7.004;2022-10-31T07:10:12;9.90;99.90
52565;DHT22;38460;53.106;7.004;2022-10-31T07:12:37;9.90;99.90
52565;DHT22;38460;53.106;7.004;2022-10-31T07:15:04;9.90;99.90
52565;DHT22;38460;53.106;7.004;2022-10-31T07:17:30;9.90;99.90
52565;DHT22;38460;53.106;7.004;2022-10-31T07:19:56;9.90;99.90
52565;DHT22;38460;53.106;7.004;2022-10-31T07:22:21;9.90;99.90
52565;DHT22;38460;53.106;7.004;2022-10-31T07:24:47;9.90;99.90
52565;DHT22;38460;53.106;7.004;2022-10-31T07:27:13;9.90;99.90
52565;DHT22;38460;53.106;7.004;2022-10-31T07:29:38;9.90;99.90
52565;DHT22;38460;53.106;7.004;2022-10-31T07:32:04;9.90;99.90
52565;DHT22;38460;53.106;7.004;2022-10-31T07:34:30;9.90;99.90
52565;DHT22;38460;53.106;7.004;2022-10-31T07:36:55;9.90;99.90
52565;DHT22;38460;53.106;7.004;2022-10-31T07:39:21;10.00;99.90
52565;DHT22;38460;53.106;7.004;2022-10-31T07:41:47;9.90;99.90
52565;DHT22;38460;53.106;7.004;2022-10-31T07:44:12;10.00;99.90
52565;DHT22;38460;53.106;7.004;2022-10-31T07:46:38;10.00;99.90
52565;DHT22;38460;53.106;7.004;2022-10-31T07:49:03;10.00;99.90
52565;DHT22;38460;53.106;7.004;2022-10-31T07:51:29;10.00;99.90
52565;DHT22;38460;53.106;7.004;2022-10-31T07:53:55;10.00;99.90
52565;DHT22;38460;53.106;7.004;2022-10-31T07:56:21;10.10;99.90
52565;DHT22;38460;53.106;7.004;2022-10-31T07:58:46;10.00;99.90
52565;DHT22;38460;53.106;7.004;2022-10-31T08:01:12;10.10;99.90
52565;DHT22;38460;53.106;7.004;2022-10-31T08:03:38;10.10;99.90
52565;DHT22;38460;53.106;7.004;2022-10-31T08:06:04;10.10;99.90
52565;DHT22;38460;53.106;7.004;2022-10-31T08:08:29;10.10;99.90
52565;DHT22;38460;53.106;7.004;2022-10-31T08:10:55;10.10;99.90
52565;DHT22;38460;53.106;7.004;2022-10-31T08:13:22;10.10;99.90
52565;DHT22;38460;53.106;7.004;2022-10-31T08:15:47;10.10;99.90
52565;DHT22;38460;53.106;7.004;2022-10-31T08:18:16;10.20;99.90
52565;DHT22;38460;53.106;7.004;2022-10-31T08:20:42;10.20;99.90
52565;DHT22;38460;53.106;7.004;2022-10-31T08:23:10;10.20;99.90
52565;DHT22;38460;53.106;7.004;2022-10-31T08:25:36;10.20;99.90
52565;DHT22;38460;53.106;7.004;2022-10-31T08:28:02;10.30;99.90
52565;DHT22;38460;53.106;7.004;2022-10-31T08:30:31;10.30;99.90
52565;DHT22;38460;53.106;7.004;2022-10-31T08:33:00;10.30;99.90
52565;DHT22;38460;53.106;7.004;2022-10-31T08:35:26;10.40;99.90
52565;DHT22;38460;53.106;7.004;2022-10-31T08:37:53;10.40;99.90
52565;DHT22;38460;53.106;7.004;2022-10-31T08:40:19;10.50;99.90
52565;DHT22;38460;53.106;7.004;2022-10-31T08:42:45;10.50;99.90
52565;DHT22;38460;53.106;7.004;2022-10-31T08:45:11;10.60;99.90
52565;DHT22;38460;53.106;7.004;2022-10-31T08:47:36;10.60;99.90
52565;DHT22;38460;53.106;7.004;2022-10-31T08:50:02;10.70;99.90
52565;DHT22;38460;53.106;7.004;2022-10-31T08:52:28;10.80;99.90
52565;DHT22;38460;53.106;7.004;2022-10-31T08:54:54;10.80;99.90
52565;DHT22;38460;53.106;7.004;2022-10-31T08:57:19;10.90;99.90
52565;DHT22;38460;53.106;7.004;2022-10-31T08:59:45;11.00;99.90
52565;DHT22;38460;53.106;7.004;2022-10-31T09:02:11;11.00;99.90
52565;DHT22;38460;53.106;7.004;2022-10-31T09:04:36;11.10;99.90
52565;DHT22;38460;53.106;7.004;2022-10-31T09:07:02;11.20;99.90
52565;DHT22;38460;53.106;7.004;2022-10-31T09:09:28;11.20;99.90
52565;DHT22;38460;53.106;7.004;2022-10-31T09:11:53;11.30;99.90
52565;DHT22;38460;53.106;7.004;2022-10-31T09:14:19;11.40;99.90
52565;DHT22;38460;53.106;7.004;2022-10-31T09:16:45;11.50;99.90
52565;DHT22;38460;53.106;7.004;2022-10-31T09:19:10;11.50;99.90
52565;DHT22;38460;53.106;7.004;2022-10-31T09:21:36;11.60;99.90
52565;DHT22;38460;53.106;7.004;2022-10-31T09:24:02;11.70;99.90
52565;DHT22;38460;53.106;7.004;2022-10-31T09:26:27;11.80;99.90
52565;DHT22;38460;53.106;7.004;2022-10-31T09:28:53;11.90;99.90
52565;DHT22;38460;53.106;7.004;2022-10-31T09:31:19;12.00;99.90
52565;DHT22;38460;53.106;7.004;2022-10-31T09:33:44;12.00;99.90
52565;DHT22;38460;53.106;7.004;2022-10-31T09:36:10;12.10;99.90
52565;DHT22;38460;53.106;7.004;2022-10-31T09:38:36;12.20;99.90
52565;DHT22;38460;53.106;7.004;2022-10-31T09:44:35;12.30;99.90
52565;DHT22;38460;53.106;7.004;2022-10-31T09:46:43;12.40;99.90
52565;DHT22;38460;53.106;7.004;2022-10-31T09:51:45;12.60;99.90
52565;DHT22;38460;53.106;7.004;2022-10-31T09:54:25;12.60;99.90
52565;DHT22;38460;53.106;7.004;2022-10-31T09:56:52;12.70;99.90
52565;DHT22;38460;53.106;7.004;2022-10-31T09:59:33;12.80;99.90
52565;DHT22;38460;53.106;7.004;2022-10-31T10:02:03;12.80;99.90
52565;DHT22;38460;53.106;7.004;2022-10-31T10:10:00;12.90;99.90
52565;DHT22;38460;53.106;7.004;2022-10-31T10:15:33;13.10;99.90
52565;DHT22;38460;53.106;7.004;2022-10-31T10:25:52;13.20;99.90
52565;DHT22;38460;53.106;7.004;2022-10-31T10:28:26;13.30;99.90
52565;DHT22;38460;53.106;7.004;2022-10-31T10:36:38;13.40;99.90
52565;DHT22;38460;53.106;7.004;2022-10-31T10:39:11;13.40;99.90
52565;DHT22;38460;53.106;7.004;2022-10-31T10:41:43;13.40;99.90
52565;DHT22;38460;53.106;7.004;2022-10-31T10:44:10;13.50;99.90
52565;DHT22;38460;53.106;7.004;2022-10-31T10:46:51;13.50;99.90
52565;DHT22;38460;53.106;7.004;2022-10-31T10:49:42;13.50;99.90
52565;DHT22;38460;53.106;7.004;2022-10-31T11:00:17;13.80;99.90
52565;DHT22;38460;53.106;7.004;2022-10-31T11:02:43;13.90;99.90
52565;DHT22;38460;53.106;7.004;2022-10-31T11:05:20;14.00;99.90
52565;DHT22;38460;53.106;7.004;2022-10-31T11:07:47;14.10;99.90
52565;DHT22;38460;53.106;7.004;2022-10-31T11:10:14;14.10;99.90
52565;DHT22;38460;53.106;7.004;2022-10-31T11:12:41;14.10;99.90
52565;DHT22;38460;53.106;7.004;2022-10-31T11:15:18;14.20;99.90
52565;DHT22;38460;53.106;7.004;2022-10-31T11:17:49;14.20;99.90
52565;DHT22;38460;53.106;7.004;2022-10-31T11:22:42;14.30;99.90
52565;DHT22;38460;53.106;7.004;2022-10-31T11:27:47;14.40;99.90
52565;DHT22;38460;53.106;7.004;2022-10-31T11:30:23;14.50;99.90
52565;DHT22;38460;53.106;7.004;2022-10-31T11:32:50;14.60;99.90
52565;DHT22;38460;53.106;7.004;2022-10-31T11:35:21;14.60;99.90
52565;DHT22;38460;53.106;7.004;2022-10-31T11:37:50;14.80;99.90
52565;DHT22;38460;53.106;7.004;2022-10-31T11:40:22;14.90;99.90
52565;DHT22;38460;53.106;7.004;2022-10-31T11:42:51;14.90;99.90
52565;DHT22;38460;53.106;7.004;2022-10-31T11:47:54;15.00;99.90
52565;DHT22;38460;53.106;7.004;2022-10-31T11:50:41;15.00;99.90
52565;DHT22;38460;53.106;7.004;2022-10-31T11:53:14;15.00;99.90
52565;DHT22;38460;53.106;7.004;2022-10-31T11:55:41;15.10;99.90
52565;DHT22;38460;53.106;7.004;2022-10-31T11:58:25;15.10;99.90
52565;DHT22;38460;53.106;7.004;2022-10-31T12:00:54;15.10;99.90
52565;DHT22;38460;53.106;7.004;2022-10-31T12:06:07;15.10;99.90
52565;DHT22;38460;53.106;7.004;2022-10-31T12:08:36;15.20;99.90
52565;DHT22;38460;53.106;7.004;2022-10-31T12:11:10;15.10;99.90
52565;DHT22;38460;53.106;7.004;2022-10-31T12:16:57;15.20;99.90
52565;DHT22;38460;53.106;7.004;2022-10-31T12:27:48;15.30;99.90
52565;DHT22;38460;53.106;7.004;2022-10-31T12:30:26;15.40;99.90
52565;DHT22;38460;53.106;7.004;2022-10-31T12:33:03;15.50;99.90
52565;DHT22;38460;53.106;7.004;2022-10-31T12:38:05;15.50;99.90
52565;DHT22;38460;53.106;7.004;2022-10-31T12:43:25;15.60;99.90
52565;DHT22;38460;53.106;7.004;2022-10-31T12:45:56;15.60;99.90
52565;DHT22;38460;53.106;7.004;2022-10-31T12:59:35;15.60;99.90
52565;DHT22;38460;53.106;7.004;2022-10-31T13:05:18;15.50;99.90
52565;DHT22;38460;53.106;7.004;2022-10-31T13:08:02;15.50;99.90
52565;DHT22;38460;53.106;7.004;2022-10-31T13:10:37;15.50;99.90
52565;DHT22;38460;53.106;7.004;2022-10-31T13:15:49;15.50;99.90
52565;DHT22;38460;53.106;7.004;2022-10-31T13:18:44;15.50;99.90
52565;DHT22;38460;53.106;7.004;2022-10-31T13:21:37;15.50;99.90
52565;DHT22;38460;53.106;7.004;2022-10-31T13:24:04;15.50;99.90
52565;DHT22;38460;53.106;7.004;2022-10-31T13:26:56;15.50;99.90
52565;DHT22;38460;53.106;7.004;2022-10-31T13:29:40;15.50;99.90
52565;DHT22;38460;53.106;7.004;2022-10-31T13:32:08;15.50;99.90
52565;DHT22;38460;53.106;7.004;2022-10-31T13:34:42;15.50;99.90
52565;DHT22;38460;53.106;7.004;2022-10-31T13:37:31;15.50;99.90
52565;DHT22;38460;53.106;7.004;2022-10-31T13:40:11;15.50;99.90
52565;DHT22;38460;53.106;7.004;2022-10-31T13:43:05;15.50;99.90
52565;DHT22;38460;53.106;7.004;2022-10-31T13:45:32;15.50;99.90
52565;DHT22;38460;53.106;7.004;2022-10-31T13:50:54;15.50;99.90
52565;DHT22;38460;53.106;7.004;2022-10-31T13:53:34;15.50;99.90
52565;DHT22;38460;53.106;7.004;2022-10-31T13:56:20;15.50;99.90
52565;DHT22;38460;53.106;7.004;2022-10-31T13:59:22;15.60;99.90
52565;DHT22;38460;53.106;7.004;2022-10-31T14:01:57;15.60;99.90
52565;DHT22;38460;53.106;7.004;2022-10-31T14:04:28;15.60;99.90
52565;DHT22;38460;53.106;7.004;2022-10-31T14:09:38;15.60;99.90
52565;DHT22;38460;53.106;7.004;2022-10-31T14:14:59;15.70;99.90
52565;DHT22;38460;53.106;7.004;2022-10-31T14:17:27;15.70;99.90
52565;DHT22;38460;53.106;7.004;2022-10-31T14:22:32;15.70;99.90
52565;DHT22;38460;53.106;7.004;2022-10-31T14:24:58;15.70;99.90
52565;DHT22;38460;53.106;7.004;2022-10-31T14:29:50;15.70;99.90
52565;DHT22;38460;53.106;7.004;2022-10-31T14:32:26;15.70;99.90
52565;DHT22;38460;53.106;7.004;2022-10-31T14:34:56;15.70;99.90
52565;DHT22;38460;53.106;7.004;2022-10-31T14:37:56;15.60;99.90
52565;DHT22;38460;53.106;7.004;2022-10-31T14:41:05;15.60;99.90
52565;DHT22;38460;53.106;7.004;2022-10-31T14:43:55;15.60;99.90
52565;DHT22;38460;53.106;7.004;2022-10-31T14:46:48;15.60;99.90
52565;DHT22;38460;53.106;7.004;2022-10-31T14:49:48;15.60;99.90
52565;DHT22;38460;53.106;7.004;2022-10-31T14:52:17;15.60;99.90
52565;DHT22;38460;53.106;7.004;2022-10-31T14:54:49;15.60;99.90
52565;DHT22;38460;53.106;7.004;2022-10-31T14:57:20;15.60;99.90
52565;DHT22;38460;53.106;7.004;2022-10-31T14:59:48;15.50;99.90
52565;DHT22;38460;53.106;7.004;2022-10-31T15:02:24;15.50;99.90
52565;DHT22;38460;53.106;7.004;2022-10-31T15:04:52;15.50;99.90
52565;DHT22;38460;53.106;7.004;2022-10-31T15:07:24;15.40;99.90
52565;DHT22;38460;53.106;7.004;2022-10-31T15:10:04;15.40;99.90
52565;DHT22;38460;53.106;7.004;2022-10-31T15:12:34;15.40;99.90
52565;DHT22;38460;53.106;7.004;2022-10-31T15:15:13;15.40;99.90
52565;DHT22;38460;53.106;7.004;2022-10-31T15:17:50;15.30;99.90
52565;DHT22;38460;53.106;7.004;2022-10-31T15:20:20;15.30;99.90
52565;DHT22;38460;53.106;7.004;2022-10-31T15:22:47;15.30;99.90
52565;DHT22;38460;53.106;7.004;2022-10-31T15:25:20;15.20;99.90
52565;DHT22;38460;53.106;7.004;2022-10-31T15:27:47;15.20;99.90
52565;DHT22;38460;53.106;7.004;2022-10-31T15:30:22;15.20;99.90
52565;DHT22;38460;53.106;7.004;2022-10-31T15:32:49;15.10;99.90
52565;DHT22;38460;53.106;7.004;2022-10-31T15:35:26;15.10;99.90
52565;DHT22;38460;53.106;7.004;2022-10-31T15:37:53;15.10;99.90
52565;DHT22;38460;53.106;7.004;2022-10-31T15:40:21;15.10;99.90
52565;DHT22;38460;53.106;7.004;2022-10-31T15:42:59;15.00;99.90
52565;DHT22;38460;53.106;7.004;2022-10-31T15:45:29;15.00;99.90
52565;DHT22;38460;53.106;7.004;2022-10-31T15:48:25;15.00;99.90
52565;DHT22;38460;53.106;7.004;2022-10-31T15:50:54;15.00;99.90
52565;DHT22;38460;53.106;7.004;2022-10-31T15:56:01;14.90;99.90
52565;DHT22;38460;53.106;7.004;2022-10-31T15:58:28;14.90;99.90
52565;DHT22;38460;53.106;7.004;2022-10-31T16:01:03;14.80;99.90
52565;DHT22;38460;53.106;7.004;2022-10-31T16:03:31;14.80;99.90
52565;DHT22;38460;53.106;7.004;2022-10-31T16:06:02;14.80;99.90
52565;DHT22;38460;53.106;7.004;2022-10-31T16:11:14;14.70;99.90
52565;DHT22;38460;53.106;7.004;2022-10-31T16:16:31;14.60;99.90
52565;DHT22;38460;53.106;7.004;2022-10-31T16:18:59;14.60;99.90
52565;DHT22;38460;53.106;7.004;2022-10-31T16:21:31;14.60;99.90
52565;DHT22;38460;53.106;7.004;2022-10-31T16:24:30;14.50;99.90
52565;DHT22;38460;53.106;7.004;2022-10-31T16:27:04;14.60;99.90
52565;DHT22;38460;53.106;7.004;2022-10-31T16:29:41;14.50;99.90
52565;DHT22;38460;53.106;7.004;2022-10-31T16:37:36;14.40;99.90
52565;DHT22;38460;53.106;7.004;2022-10-31T16:40:02;14.40;99.90
52565;DHT22;38460;53.106;7.004;2022-10-31T16:42:28;14.30;99.90
52565;DHT22;38460;53.106;7.004;2022-10-31T16:44:54;14.30;99.90
52565;DHT22;38460;53.106;7.004;2022-10-31T16:47:19;14.30;99.90
52565;DHT22;38460;53.106;7.004;2022-10-31T16:49:48;14.30;99.90
52565;DHT22;38460;53.106;7.004;2022-10-31T16:52:16;14.30;99.90
52565;DHT22;38460;53.106;7.004;2022-10-31T16:54:41;14.20;99.90
52565;DHT22;38460;53.106;7.004;2022-10-31T16:57:13;14.20;99.90
52565;DHT22;38460;53.106;7.004;2022-10-31T16:59:39;14.20;99.90
52565;DHT22;38460;53.106;7.004;2022-10-31T17:02:12;14.20;99.90
52565;DHT22;38460;53.106;7.004;2022-10-31T17:04:39;14.20;99.90
52565;DHT22;38460;53.106;7.004;2022-10-31T17:07:04;14.10;99.90
52565;DHT22;38460;53.106;7.004;2022-10-31T17:09:30;14.20;99.90
52565;DHT22;38460;53.106;7.004;2022-10-31T17:11:56;14.10;99.90
52565;DHT22;38460;53.106;7.004;2022-10-31T17:14:22;14.10;99.90
52565;DHT22;38460;53.106;7.004;2022-10-31T17:16:48;14.10;99.90
52565;DHT22;38460;53.106;7.004;2022-10-31T17:19:13;14.10;99.90
52565;DHT22;38460;53.106;7.004;2022-10-31T17:21:39;14.10;99.90
52565;DHT22;38460;53.106;7.004;2022-10-31T17:24:05;14.10;99.90
52565;DHT22;38460;53.106;7.004;2022-10-31T17:26:32;14.10;99.90
52565;DHT22;38460;53.106;7.004;2022-10-31T17:28:57;14.10;99.90
52565;DHT22;38460;53.106;7.004;2022-10-31T17:31:29;14.00;99.90
52565;DHT22;38460;53.106;7.004;2022-10-31T17:33:55;14.10;99.90
52565;DHT22;38460;53.106;7.004;2022-10-31T17:36:22;14.10;99.90
52565;DHT22;38460;53.106;7.004;2022-10-31T17:38:47;14.10;99.90
52565;DHT22;38460;53.106;7.004;2022-10-31T17:41:13;14.10;99.90
52565;DHT22;38460;53.106;7.004;2022-10-31T17:43:39;14.10;99.90
52565;DHT22;38460;53.106;7.004;2022-10-31T17:46:05;14.10;99.90
52565;DHT22;38460;53.106;7.004;2022-10-31T17:48:33;14.10;99.90
52565;DHT22;38460;53.106;7.004;2022-10-31T17:51:03;14.10;99.90
52565;DHT22;38460;53.106;7.004;2022-10-31T17:53:33;14.10;99.90
52565;DHT22;38460;53.106;7.004;2022-10-31T17:56:04;14.10;99.90
52565;DHT22;38460;53.106;7.004;2022-10-31T17:58:30;14.10;99.90
52565;DHT22;38460;53.106;7.004;2022-10-31T18:00:56;14.10;99.90
52565;DHT22;38460;53.106;7.004;2022-10-31T18:03:23;14.10;99.90
52565;DHT22;38460;53.106;7.004;2022-10-31T18:05:56;14.10;99.90
52565;DHT22;38460;53.106;7.004;2022-10-31T18:08:40;14.10;99.90
52565;DHT22;38460;53.106;7.004;2022-10-31T18:11:08;14.10;99.90